sensor_id;sensor_type;location;lat;lon;timestamp;pressure;altitude;pressure_sealevel;temperature;humidity
49342;BME280;35210;41.606;-87.602;2023-04-23T00:01:57;99235.47;;;8.96;59.91
49342;BME280;35210;41.606;-87.602;2023-04-23T00:04:27;99232.09;;;8.94;59.42
49342;BME280;35210;41.606;-87.602;2023-04-23T00:07:02;99242.41;;;8.97;59.64
49342;BME280;35210;41.606;-87.602;2023-04-23T00:09:31;99241.44;;;8.87;61.34
49342;BME280;35210;41.606;-87.602;2023-04-23T00:11:59;99245.25;;;8.83;62.18
49342;BME280;35210;41.606;-87.602;2023-04-23T00:14:32;99256.78;;;8.69;59.57
49342;BME280;35210;41.606;-87.602;2023-04-23T00:17:00;99256.09;;;8.54;59.29
49342;BME280;35210;41.606;-87.602;2023-04-23T00:19:29;99260.31;;;8.44;59.71
49342;BME280;35210;41.606;-87.602;2023-04-23T00:21:57;99262.19;;;8.30;60.91
49342;BME280;35210;41.606;-87.602;2023-04-23T00:24:26;99265.38;;;8.22;61.07
49342;BME280;35210;41.606;-87.602;2023-04-23T00:26:56;99265.53;;;8.08;61.96
49342;BME280;35210;41.606;-87.602;2023-04-23T00:29:24;99259.53;;;8.06;62.62
49342;BME280;35210;41.606;-87.602;2023-04-23T00:31:52;99273.63;;;8.05;63.42
49342;BME280;35210;41.606;-87.602;2023-04-23T00:34:22;99266.47;;;8.07;64.49
49342;BME280;35210;41.606;-87.602;2023-04-23T00:36:50;99280.78;;;8.03;63.91
49342;BME280;35210;41.606;-87.602;2023-04-23T00:39:18;99280.97;;;8.00;64.56
49342;BME280;35210;41.606;-87.602;2023-04-23T00:41:48;99285.50;;;7.85;66.11
49342;BME280;35210;41.606;-87.602;2023-04-23T00:44:16;99283.50;;;7.88;66.98
49342;BME280;35210;41.606;-87.602;2023-04-23T00:46:45;99291.06;;;7.80;68.05
49342;BME280;35210;41.606;-87.602;2023-04-23T00:49:13;99292.53;;;7.84;68.50
49342;BME280;35210;41.606;-87.602;2023-04-23T00:51:42;99285.19;;;7.89;69.25
49342;BME280;35210;41.606;-87.602;2023-04-23T00:54:10;99281.81;;;7.87;68.55
49342;BME280;35210;41.606;-87.602;2023-04-23T00:56:39;99285.81;;;7.80;67.69
49342;BME280;35210;41.606;-87.602;2023-04-23T00:59:09;99290.63;;;7.74;68.21
49342;BME280;35210;41.606;-87.602;2023-04-23T01:01:37;99289.59;;;7.76;68.76
49342;BME280;35210;41.606;-87.602;2023-04-23T01:04:06;99293.38;;;7.85;68.18
49342;BME280;35210;41.606;-87.602;2023-04-23T01:06:35;99299.50;;;7.85;67.14
49342;BME280;35210;41.606;-87.602;2023-04-23T01:09:03;99286.66;;;7.94;66.31
49342;BME280;35210;41.606;-87.602;2023-04-23T01:11:31;99292.66;;;7.96;65.19
49342;BME280;35210;41.606;-87.602;2023-04-23T01:14:01;99301.06;;;8.01;64.88
49342;BME280;35210;41.606;-87.602;2023-04-23T01:16:31;99305.38;;;8.02;64.37
49342;BME280;35210;41.606;-87.602;2023-04-23T01:18:59;99307.69;;;7.94;62.97
49342;BME280;35210;41.606;-87.602;2023-04-23T01:21:29;99316.13;;;7.99;62.57
49342;BME280;35210;41.606;-87.602;2023-04-23T01:23:59;99309.38;;;7.82;61.76
49342;BME280;35210;41.606;-87.602;2023-04-23T01:26:28;99310.94;;;7.84;62.76
49342;BME280;35210;41.606;-87.602;2023-04-23T01:28:56;99311.16;;;7.81;63.73
49342;BME280;35210;41.606;-87.602;2023-04-23T01:31:26;99325.13;;;7.82;63.56
49342;BME280;35210;41.606;-87.602;2023-04-23T01:33:54;99322.31;;;7.85;63.49
49342;BME280;35210;41.606;-87.602;2023-04-23T01:36:23;99328.91;;;7.78;64.08
49342;BME280;35210;41.606;-87.602;2023-04-23T01:38:52;99340.84;;;7.56;65.84
49342;BME280;35210;41.606;-87.602;2023-04-23T01:41:22;99346.31;;;7.41;68.43
49342;BME280;35210;41.606;-87.602;2023-04-23T01:43:51;99346.69;;;7.35;70.53
49342;BME280;35210;41.606;-87.602;2023-04-23T01:46:20;99355.91;;;7.28;72.56
49342;BME280;35210;41.606;-87.602;2023-04-23T01:48:48;99348.09;;;7.13;73.69
49342;BME280;35210;41.606;-87.602;2023-04-23T01:51:16;99356.72;;;7.15;74.46
49342;BME280;35210;41.606;-87.602;2023-04-23T01:53:44;99351.66;;;7.12;74.59
49342;BME280;35210;41.606;-87.602;2023-04-23T01:56:14;99349.78;;;7.14;75.71
49342;BME280;35210;41.606;-87.602;2023-04-23T01:58:44;99344.41;;;7.16;76.37
49342;BME280;35210;41.606;-87.602;2023-04-23T02:01:13;99344.78;;;7.24;76.38
49342;BME280;35210;41.606;-87.602;2023-04-23T02:03:41;99339.22;;;7.29;76.38
49342;BME280;35210;41.606;-87.602;2023-04-23T02:06:10;99343.97;;;7.36;75.22
49342;BME280;35210;41.606;-87.602;2023-04-23T02:08:38;99342.50;;;7.45;75.33
49342;BME280;35210;41.606;-87.602;2023-04-23T02:11:07;99345.47;;;7.53;74.19
49342;BME280;35210;41.606;-87.602;2023-04-23T02:13:35;99342.75;;;7.54;73.85
49342;BME280;35210;41.606;-87.602;2023-04-23T02:16:05;99341.69;;;7.57;72.48
49342;BME280;35210;41.606;-87.602;2023-04-23T02:18:34;99338.97;;;7.58;72.71
49342;BME280;35210;41.606;-87.602;2023-04-23T02:21:02;99345.28;;;7.56;71.99
49342;BME280;35210;41.606;-87.602;2023-04-23T02:23:30;99348.63;;;7.58;71.11
49342;BME280;35210;41.606;-87.602;2023-04-23T02:25:58;99333.06;;;7.42;69.56
49342;BME280;35210;41.606;-87.602;2023-04-23T02:28:26;99340.41;;;7.50;69.19
49342;BME280;35210;41.606;-87.602;2023-04-23T02:30:54;99339.59;;;7.62;69.28
49342;BME280;35210;41.606;-87.602;2023-04-23T02:33:24;99342.25;;;7.62;68.29
49342;BME280;35210;41.606;-87.602;2023-04-23T02:35:52;99344.88;;;7.62;68.36
49342;BME280;35210;41.606;-87.602;2023-04-23T02:38:20;99346.94;;;7.57;68.19
49342;BME280;35210;41.606;-87.602;2023-04-23T02:40:49;99345.66;;;7.50;68.02
49342;BME280;35210;41.606;-87.602;2023-04-23T02:43:17;99339.78;;;7.46;67.96
49342;BME280;35210;41.606;-87.602;2023-04-23T02:45:45;99339.13;;;7.43;68.40
49342;BME280;35210;41.606;-87.602;2023-04-23T02:48:13;99338.31;;;7.42;68.79
49342;BME280;35210;41.606;-87.602;2023-04-23T02:50:43;99331.78;;;7.48;68.92
49342;BME280;35210;41.606;-87.602;2023-04-23T02:53:11;99330.09;;;7.47;68.28
49342;BME280;35210;41.606;-87.602;2023-04-23T02:55:40;99340.09;;;7.42;69.26
49342;BME280;35210;41.606;-87.602;2023-04-23T02:58:08;99339.47;;;7.51;69.41
49342;BME280;35210;41.606;-87.602;2023-04-23T03:00:37;99340.41;;;7.50;69.05
49342;BME280;35210;41.606;-87.602;2023-04-23T03:03:05;99341.34;;;7.49;69.53
49342;BME280;35210;41.606;-87.602;2023-04-23T03:05:33;99338.31;;;7.55;69.58
49342;BME280;35210;41.606;-87.602;2023-04-23T03:08:03;99329.31;;;7.59;69.61
49342;BME280;35210;41.606;-87.602;2023-04-23T03:10:31;99324.69;;;7.63;69.72
49342;BME280;35210;41.606;-87.602;2023-04-23T03:12:59;99326.06;;;7.68;69.45
49342;BME280;35210;41.606;-87.602;2023-04-23T03:15:27;99328.47;;;7.71;69.41
49342;BME280;35210;41.606;-87.602;2023-04-23T03:17:56;99333.53;;;7.74;69.17
49342;BME280;35210;41.606;-87.602;2023-04-23T03:20:24;99329.75;;;7.78;68.83
49342;BME280;35210;41.606;-87.602;2023-04-23T03:22:52;99341.75;;;7.82;68.23
49342;BME280;35210;41.606;-87.602;2023-04-23T03:25:22;99344.47;;;7.81;68.94
49342;BME280;35210;41.606;-87.602;2023-04-23T03:27:50;99337.34;;;7.83;68.69
49342;BME280;35210;41.606;-87.602;2023-04-23T03:30:19;99329.75;;;7.78;68.83
49342;BME280;35210;41.606;-87.602;2023-04-23T03:32:48;99337.19;;;7.59;69.08
49342;BME280;35210;41.606;-87.602;2023-04-23T03:35:16;99338.66;;;7.63;69.06
49342;BME280;35210;41.606;-87.602;2023-04-23T03:37:45;99331.53;;;7.65;69.41
49342;BME280;35210;41.606;-87.602;2023-04-23T03:40:13;99332.25;;;7.67;69.24
49342;BME280;35210;41.606;-87.602;2023-04-23T03:42:43;99331.28;;;7.55;69.31
49342;BME280;35210;41.606;-87.602;2023-04-23T03:45:14;99331.28;;;7.55;68.78
49342;BME280;35210;41.606;-87.602;2023-04-23T03:47:42;99333.47;;;7.49;68.92
49342;BME280;35210;41.606;-87.602;2023-04-23T03:50:10;99332.00;;;7.45;69.23
49342;BME280;35210;41.606;-87.602;2023-04-23T03:52:39;99330.44;;;7.42;69.32
49342;BME280;35210;41.606;-87.602;2023-04-23T03:55:08;99329.69;;;7.40;69.51
49342;BME280;35210;41.606;-87.602;2023-04-23T03:57:37;99323.81;;;7.37;69.48
49342;BME280;35210;41.606;-87.602;2023-04-23T04:00:07;99331.59;;;7.38;69.99
49342;BME280;35210;41.606;-87.602;2023-04-23T04:02:36;99325.78;;;7.46;69.79
49342;BME280;35210;41.606;-87.602;2023-04-23T04:05:05;99330.09;;;7.47;69.06
49342;BME280;35210;41.606;-87.602;2023-04-23T04:07:34;99328.63;;;7.43;69.68
49342;BME280;35210;41.606;-87.602;2023-04-23T04:10:02;99324.00;;;7.34;69.85
49342;BME280;35210;41.606;-87.602;2023-04-23T04:12:31;99331.59;;;7.38;70.34
49342;BME280;35210;41.606;-87.602;2023-04-23T04:14:59;99329.59;;;7.42;69.43
49342;BME280;35210;41.606;-87.602;2023-04-23T04:17:29;99336.28;;;7.33;69.46
49342;BME280;35210;41.606;-87.602;2023-04-23T04:19:57;99329.47;;;7.31;69.92
49342;BME280;35210;41.606;-87.602;2023-04-23T04:22:25;99341.94;;;7.27;69.56
49342;BME280;35210;41.606;-87.602;2023-04-23T04:24:53;99338.13;;;7.18;69.17
49342;BME280;35210;41.606;-87.602;2023-04-23T04:27:22;99340.75;;;7.18;69.04
49342;BME280;35210;41.606;-87.602;2023-04-23T04:29:50;99336.53;;;7.16;69.59
49342;BME280;35210;41.606;-87.602;2023-04-23T04:32:19;99333.63;;;7.20;69.82
49342;BME280;35210;41.606;-87.602;2023-04-23T04:34:49;99337.47;;;7.15;69.69
49342;BME280;35210;41.606;-87.602;2023-04-23T04:37:18;99341.69;;;7.17;69.74
49342;BME280;35210;41.606;-87.602;2023-04-23T04:39:46;99344.13;;;7.20;70.12
49342;BME280;35210;41.606;-87.602;2023-04-23T04:42:14;99344.78;;;7.24;70.17
49342;BME280;35210;41.606;-87.602;2023-04-23T04:44:42;99340.84;;;7.17;69.48
49342;BME280;35210;41.606;-87.602;2023-04-23T04:47:11;99345.81;;;7.21;69.07
49342;BME280;35210;41.606;-87.602;2023-04-23T04:49:41;99346.00;;;7.18;69.12
49342;BME280;35210;41.606;-87.602;2023-04-23T04:52:11;99344.91;;;7.08;69.72
49342;BME280;35210;41.606;-87.602;2023-04-23T04:54:39;99334.22;;;7.11;70.02
49342;BME280;35210;41.606;-87.602;2023-04-23T04:57:07;99341.78;;;7.16;69.60
49342;BME280;35210;41.606;-87.602;2023-04-23T04:59:36;99345.84;;;7.07;69.26
49342;BME280;35210;41.606;-87.602;2023-04-23T05:02:04;99343.22;;;7.07;68.90
49342;BME280;35210;41.606;-87.602;2023-04-23T05:04:32;99353.19;;;7.02;68.79
49342;BME280;35210;41.606;-87.602;2023-04-23T05:07:00;99345.19;;;7.04;68.64
49342;BME280;35210;41.606;-87.602;2023-04-23T05:09:29;99347.19;;;7.00;68.87
49342;BME280;35210;41.606;-87.602;2023-04-23T05:11:57;99347.19;;;7.00;69.05
49342;BME280;35210;41.606;-87.602;2023-04-23T05:14:26;99349.72;;;7.02;68.56
49342;BME280;35210;41.606;-87.602;2023-04-23T05:16:54;99346.59;;;7.09;68.20
49342;BME280;35210;41.606;-87.602;2023-04-23T05:19:23;99353.91;;;7.04;68.38
49342;BME280;35210;41.606;-87.602;2023-04-23T05:21:51;99357.94;;;7.10;68.19
49342;BME280;35210;41.606;-87.602;2023-04-23T05:24:19;99363.13;;;6.97;68.31
49342;BME280;35210;41.606;-87.602;2023-04-23T05:26:49;99357.03;;;6.97;68.00
49342;BME280;35210;41.606;-87.602;2023-04-23T05:29:18;99358.06;;;6.94;68.37
49342;BME280;35210;41.606;-87.602;2023-04-23T05:31:47;99359.19;;;6.90;68.84
49342;BME280;35210;41.606;-87.602;2023-04-23T05:34:15;99359.94;;;6.92;69.00
49342;BME280;35210;41.606;-87.602;2023-04-23T05:36:43;99362.28;;;6.97;68.78
49342;BME280;35210;41.606;-87.602;2023-04-23T05:39:11;99361.53;;;6.95;68.65
49342;BME280;35210;41.606;-87.602;2023-04-23T05:41:40;99360.44;;;6.84;68.94
49342;BME280;35210;41.606;-87.602;2023-04-23T05:44:09;99363.72;;;6.88;68.82
49342;BME280;35210;41.606;-87.602;2023-04-23T05:46:37;99361.19;;;6.86;69.26
49342;BME280;35210;41.606;-87.602;2023-04-23T05:49:05;99357.34;;;6.78;69.40
49342;BME280;35210;41.606;-87.602;2023-04-23T05:51:33;99363.16;;;6.83;70.05
49342;BME280;35210;41.606;-87.602;2023-04-23T05:54:01;99362.66;;;6.90;69.38
49342;BME280;35210;41.606;-87.602;2023-04-23T05:56:29;99368.78;;;6.77;69.43
49342;BME280;35210;41.606;-87.602;2023-04-23T05:58:57;99371.03;;;6.83;69.67
49342;BME280;35210;41.606;-87.602;2023-04-23T06:01:27;99368.31;;;6.70;70.01
49342;BME280;35210;41.606;-87.602;2023-04-23T06:03:55;99368.25;;;6.57;70.34
49342;BME280;35210;41.606;-87.602;2023-04-23T06:06:23;99365.44;;;6.61;70.93
49342;BME280;35210;41.606;-87.602;2023-04-23T06:08:52;99369.56;;;6.65;70.45
49342;BME280;35210;41.606;-87.602;2023-04-23T06:11:20;99372.19;;;6.65;70.17
49342;BME280;35210;41.606;-87.602;2023-04-23T06:13:48;99370.09;;;6.70;70.58
49342;BME280;35210;41.606;-87.602;2023-04-23T06:16:16;99369.94;;;6.58;70.78
49342;BME280;35210;41.606;-87.602;2023-04-23T06:18:46;99364.13;;;6.68;70.73
49342;BME280;35210;41.606;-87.602;2023-04-23T06:21:14;99367.69;;;6.67;70.50
49342;BME280;35210;41.606;-87.602;2023-04-23T06:23:42;99366.09;;;6.64;70.59
49342;BME280;35210;41.606;-87.602;2023-04-23T06:26:10;99372.00;;;6.68;70.67
49342;BME280;35210;41.606;-87.602;2023-04-23T06:28:39;99369.47;;;6.66;70.95
49342;BME280;35210;41.606;-87.602;2023-04-23T06:31:07;99369.38;;;6.68;71.01
49342;BME280;35210;41.606;-87.602;2023-04-23T06:33:36;99370.09;;;6.70;70.76
49342;BME280;35210;41.606;-87.602;2023-04-23T06:36:06;99372.63;;;6.71;71.24
49342;BME280;35210;41.606;-87.602;2023-04-23T06:38:36;99372.44;;;6.74;70.81
49342;BME280;35210;41.606;-87.602;2023-04-23T06:41:04;99368.59;;;6.80;70.58
49342;BME280;35210;41.606;-87.602;2023-04-23T06:43:32;99369.53;;;6.79;70.87
49342;BME280;35210;41.606;-87.602;2023-04-23T06:46:00;99371.78;;;6.85;70.54
49342;BME280;35210;41.606;-87.602;2023-04-23T06:48:28;99374.59;;;6.82;70.13
49342;BME280;35210;41.606;-87.602;2023-04-23T06:50:57;99374.50;;;6.83;69.90
49342;BME280;35210;41.606;-87.602;2023-04-23T06:53:27;99383.97;;;6.86;70.72
49342;BME280;35210;41.606;-87.602;2023-04-23T06:55:55;99378.16;;;6.81;70.56
49342;BME280;35210;41.606;-87.602;2023-04-23T06:58:23;99371.88;;;6.83;70.87
49342;BME280;35210;41.606;-87.602;2023-04-23T07:00:56;99379.84;;;6.82;70.24
49342;BME280;35210;41.606;-87.602;2023-04-23T07:03:25;99373.56;;;6.84;70.60
49342;BME280;35210;41.606;-87.602;2023-04-23T07:05:54;99373.81;;;6.94;71.01
49342;BME280;35210;41.606;-87.602;2023-04-23T07:08:22;99379.06;;;6.94;70.59
49342;BME280;35210;41.606;-87.602;2023-04-23T07:10:51;99381.13;;;7.03;70.77
49342;BME280;35210;41.606;-87.602;2023-04-23T07:13:20;99378.22;;;6.93;70.67
49342;BME280;35210;41.606;-87.602;2023-04-23T07:15:49;99371.38;;;6.91;69.90
49342;BME280;35210;41.606;-87.602;2023-04-23T07:18:17;99381.13;;;6.89;70.33
49342;BME280;35210;41.606;-87.602;2023-04-23T07:20:45;99378.59;;;6.87;70.38
49342;BME280;35210;41.606;-87.602;2023-04-23T07:23:13;99378.16;;;6.81;71.52
49342;BME280;35210;41.606;-87.602;2023-04-23T07:25:41;99380.41;;;6.73;71.45
49342;BME280;35210;41.606;-87.602;2023-04-23T07:28:10;99387.34;;;6.74;71.30
49342;BME280;35210;41.606;-87.602;2023-04-23T07:30:38;99387.09;;;6.64;71.77
49342;BME280;35210;41.606;-87.602;2023-04-23T07:33:06;99392.06;;;6.54;72.20
49342;BME280;35210;41.606;-87.602;2023-04-23T07:35:34;99389.53;;;6.53;71.82
49342;BME280;35210;41.606;-87.602;2023-04-23T07:38:03;99397.13;;;6.57;71.89
49342;BME280;35210;41.606;-87.602;2023-04-23T07:40:31;99398.63;;;6.62;72.08
49342;BME280;35210;41.606;-87.602;2023-04-23T07:42:59;99399.56;;;6.61;71.22
49342;BME280;35210;41.606;-87.602;2023-04-23T07:45:28;99397.69;;;6.63;71.96
49342;BME280;35210;41.606;-87.602;2023-04-23T07:47:56;99408.00;;;6.66;71.86
49342;BME280;35210;41.606;-87.602;2023-04-23T07:50:24;99403.94;;;6.74;71.78
49342;BME280;35210;41.606;-87.602;2023-04-23T07:52:52;99404.78;;;6.75;70.45
49342;BME280;35210;41.606;-87.602;2023-04-23T07:55:20;99410.91;;;6.61;71.25
49342;BME280;35210;41.606;-87.602;2023-04-23T07:57:48;99409.69;;;6.67;71.38
49342;BME280;35210;41.606;-87.602;2023-04-23T08:00:17;99412.03;;;6.57;71.35
49342;BME280;35210;41.606;-87.602;2023-04-23T08:02:47;99411.94;;;6.58;71.53
49342;BME280;35210;41.606;-87.602;2023-04-23T08:05:16;99413.44;;;6.63;71.99
49342;BME280;35210;41.606;-87.602;2023-04-23T08:07:46;99414.00;;;6.68;71.61
49342;BME280;35210;41.606;-87.602;2023-04-23T08:10:14;99410.53;;;6.67;71.07
49342;BME280;35210;41.606;-87.602;2023-04-23T08:12:43;99414.53;;;6.73;69.96
49342;BME280;35210;41.606;-87.602;2023-04-23T08:15:11;99420.09;;;6.68;69.58
49342;BME280;35210;41.606;-87.602;2023-04-23T08:17:39;99426.16;;;6.40;70.09
49342;BME280;35210;41.606;-87.602;2023-04-23T08:20:10;99429.53;;;6.42;70.05
49342;BME280;35210;41.606;-87.602;2023-04-23T08:22:38;99441.09;;;6.24;70.64
49342;BME280;35210;41.606;-87.602;2023-04-23T08:25:07;99456.88;;;6.08;71.91
49342;BME280;35210;41.606;-87.602;2023-04-23T08:27:35;99443.03;;;6.06;70.56
49342;BME280;35210;41.606;-87.602;2023-04-23T08:30:04;99444.06;;;6.04;71.22
49342;BME280;35210;41.606;-87.602;2023-04-23T08:32:33;99454.53;;;6.04;71.17
49342;BME280;35210;41.606;-87.602;2023-04-23T08:35:02;99455.19;;;6.07;71.45
49342;BME280;35210;41.606;-87.602;2023-04-23T08:37:32;99462.41;;;6.04;70.53
49342;BME280;35210;41.606;-87.602;2023-04-23T08:40:00;99459.78;;;6.04;71.67
49342;BME280;35210;41.606;-87.602;2023-04-23T08:42:36;99453.78;;;6.02;71.13
49342;BME280;35210;41.606;-87.602;2023-04-23T08:45:06;99468.16;;;5.94;71.57
49342;BME280;35210;41.606;-87.602;2023-04-23T08:47:34;99464.75;;;5.94;71.60
49342;BME280;35210;41.606;-87.602;2023-04-23T08:50:04;99467.44;;;5.92;71.38
49342;BME280;35210;41.606;-87.602;2023-04-23T08:52:39;99476.38;;;5.88;72.63
49342;BME280;35210;41.606;-87.602;2023-04-23T08:55:09;99474.00;;;6.00;71.79
49342;BME280;35210;41.606;-87.602;2023-04-23T08:57:41;99480.34;;;5.96;70.64
49342;BME280;35210;41.606;-87.602;2023-04-23T09:00:10;99486.09;;;5.86;71.16
49342;BME280;35210;41.606;-87.602;2023-04-23T09:02:40;99492.97;;;5.89;71.43
49342;BME280;35210;41.606;-87.602;2023-04-23T09:05:09;99495.66;;;5.87;71.74
49342;BME280;35210;41.606;-87.602;2023-04-23T09:07:39;99494.91;;;5.85;71.26
49342;BME280;35210;41.606;-87.602;2023-04-23T09:10:09;99502.94;;;5.82;71.48
49342;BME280;35210;41.606;-87.602;2023-04-23T09:12:40;99513.59;;;5.79;71.46
49342;BME280;35210;41.606;-87.602;2023-04-23T09:15:09;99510.03;;;5.80;71.75
49342;BME280;35210;41.606;-87.602;2023-04-23T09:17:39;99514.44;;;5.80;72.10
49342;BME280;35210;41.606;-87.602;2023-04-23T09:20:08;99522.03;;;5.84;71.52
49342;BME280;35210;41.606;-87.602;2023-04-23T09:22:44;99510.88;;;5.81;71.18
49342;BME280;35210;41.606;-87.602;2023-04-23T09:25:13;99516.88;;;5.83;71.40
49342;BME280;35210;41.606;-87.602;2023-04-23T09:27:41;99525.59;;;5.83;71.11
49342;BME280;35210;41.606;-87.602;2023-04-23T09:30:11;99525.00;;;5.78;71.19
49342;BME280;35210;41.606;-87.602;2023-04-23T09:32:40;99525.16;;;5.75;70.99
49342;BME280;35210;41.606;-87.602;2023-04-23T09:35:10;99519.00;;;5.76;71.73
49342;BME280;35210;41.606;-87.602;2023-04-23T09:37:43;99521.03;;;5.71;71.57
49342;BME280;35210;41.606;-87.602;2023-04-23T09:40:14;99527.97;;;5.72;71.94
49342;BME280;35210;41.606;-87.602;2023-04-23T09:42:47;99527.97;;;5.72;71.38
49342;BME280;35210;41.606;-87.602;2023-04-23T09:45:15;99527.97;;;5.72;71.23
49342;BME280;35210;41.606;-87.602;2023-04-23T09:47:49;99534.63;;;5.78;70.61
49342;BME280;35210;41.606;-87.602;2023-04-23T09:50:17;99534.88;;;5.73;71.16
49342;BME280;35210;41.606;-87.602;2023-04-23T09:52:53;99532.34;;;5.72;71.36
49342;BME280;35210;41.606;-87.602;2023-04-23T09:55:27;99530.00;;;5.67;71.34
49342;BME280;35210;41.606;-87.602;2023-04-23T09:57:57;99531.84;;;5.65;71.28
49342;BME280;35210;41.606;-87.602;2023-04-23T10:00:26;99530.84;;;5.68;71.81
49342;BME280;35210;41.606;-87.602;2023-04-23T10:02:59;99534.22;;;5.70;71.75
49342;BME280;35210;41.606;-87.602;2023-04-23T10:05:27;99529.22;;;5.65;71.69
49342;BME280;35210;41.606;-87.602;2023-04-23T10:07:57;99519.44;;;5.53;72.09
49342;BME280;35210;41.606;-87.602;2023-04-23T10:10:26;99524.81;;;5.50;72.19
49342;BME280;35210;41.606;-87.602;2023-04-23T10:12:54;99529.66;;;5.57;72.09
49342;BME280;35210;41.606;-87.602;2023-04-23T10:15:23;99523.56;;;5.57;72.57
49342;BME280;35210;41.606;-87.602;2023-04-23T10:17:52;99521.19;;;5.52;72.02
49342;BME280;35210;41.606;-87.602;2023-04-23T10:20:21;99526.44;;;5.52;72.98
49342;BME280;35210;41.606;-87.602;2023-04-23T10:22:52;99530.66;;;5.55;72.50
49342;BME280;35210;41.606;-87.602;2023-04-23T10:25:23;99531.00;;;5.49;72.26
49342;BME280;35210;41.606;-87.602;2023-04-23T10:27:54;99533.53;;;5.50;72.71
49342;BME280;35210;41.606;-87.602;2023-04-23T10:30:24;99530.66;;;5.55;72.43
49342;BME280;35210;41.606;-87.602;2023-04-23T10:32:54;99532.19;;;5.59;72.46
49342;BME280;35210;41.606;-87.602;2023-04-23T10:35:23;99533.97;;;5.58;71.97
49342;BME280;35210;41.606;-87.602;2023-04-23T10:37:52;99534.03;;;5.57;72.01
49342;BME280;35210;41.606;-87.602;2023-04-23T10:40:27;99529.72;;;5.56;71.99
49342;BME280;35210;41.606;-87.602;2023-04-23T10:42:56;99540.03;;;5.59;72.25
49342;BME280;35210;41.606;-87.602;2023-04-23T10:45:29;99542.50;;;5.62;72.38
49342;BME280;35210;41.606;-87.602;2023-04-23T10:47:58;99545.03;;;5.64;71.22
49342;BME280;35210;41.606;-87.602;2023-04-23T10:50:28;99545.03;;;5.64;71.75
49342;BME280;35210;41.606;-87.602;2023-04-23T10:52:56;99549.25;;;5.66;72.12
49342;BME280;35210;41.606;-87.602;2023-04-23T10:55:28;99551.53;;;5.72;72.20
49342;BME280;35210;41.606;-87.602;2023-04-23T10:58:01;99542.41;;;5.79;71.14
49342;BME280;35210;41.606;-87.602;2023-04-23T11:00:43;99551.97;;;5.80;70.88
49342;BME280;35210;41.606;-87.602;2023-04-23T11:03:31;99551.63;;;5.86;70.82
49342;BME280;35210;41.606;-87.602;2023-04-23T11:06:05;99552.72;;;5.82;70.57
49342;BME280;35210;41.606;-87.602;2023-04-23T11:08:34;99552.97;;;5.78;70.57
49342;BME280;35210;41.606;-87.602;2023-04-23T11:11:08;99556.53;;;5.77;70.85
49342;BME280;35210;41.606;-87.602;2023-04-23T11:13:36;99553.41;;;5.70;70.78
49342;BME280;35210;41.606;-87.602;2023-04-23T11:16:20;99558.81;;;5.67;71.50
49342;BME280;35210;41.606;-87.602;2023-04-23T11:18:58;99560.41;;;5.70;71.54
49342;BME280;35210;41.606;-87.602;2023-04-23T11:21:58;99563.63;;;5.75;70.78
49342;BME280;35210;41.606;-87.602;2023-04-23T11:24:28;99567.00;;;5.77;71.25
49342;BME280;35210;41.606;-87.602;2023-04-23T11:26:59;99564.31;;;5.78;71.37
49342;BME280;35210;41.606;-87.602;2023-04-23T11:29:28;99564.81;;;5.85;71.02
49342;BME280;35210;41.606;-87.602;2023-04-23T11:31:56;99568.53;;;5.81;70.92
49342;BME280;35210;41.606;-87.602;2023-04-23T11:34:24;99574.44;;;5.84;71.63
49342;BME280;35210;41.606;-87.602;2023-04-23T11:36:53;99569.66;;;5.92;71.06
49342;BME280;35210;41.606;-87.602;2023-04-23T11:39:22;99572.00;;;5.97;70.91
49342;BME280;35210;41.606;-87.602;2023-04-23T11:41:51;99576.03;;;6.03;70.42
49342;BME280;35210;41.606;-87.602;2023-04-23T11:44:21;99575.78;;;6.07;70.18
49342;BME280;35210;41.606;-87.602;2023-04-23T11:46:49;99574.94;;;6.07;70.24
49342;BME280;35210;41.606;-87.602;2023-04-23T11:49:18;99591.34;;;6.10;70.27
49342;BME280;35210;41.606;-87.602;2023-04-23T11:51:47;99586.09;;;6.10;69.84
49342;BME280;35210;41.606;-87.602;2023-04-23T11:54:15;99592.94;;;6.13;69.98
49342;BME280;35210;41.606;-87.602;2023-04-23T11:56:43;99598.97;;;6.15;70.28
49342;BME280;35210;41.606;-87.602;2023-04-23T11:59:11;99604.19;;;6.15;70.31
49342;BME280;35210;41.606;-87.602;2023-04-23T12:01:45;99603.59;;;6.25;69.84
49342;BME280;35210;41.606;-87.602;2023-04-23T12:04:15;99614.94;;;6.26;70.05
49342;BME280;35210;41.606;-87.602;2023-04-23T12:06:45;99609.78;;;6.24;69.76
49342;BME280;35210;41.606;-87.602;2023-04-23T12:09:14;99617.91;;;6.20;69.54
49342;BME280;35210;41.606;-87.602;2023-04-23T12:11:44;99627.38;;;6.22;69.56
49342;BME280;35210;41.606;-87.602;2023-04-23T12:14:13;99624.66;;;6.24;69.24
49342;BME280;35210;41.606;-87.602;2023-04-23T12:16:44;99633.13;;;6.29;69.07
49342;BME280;35210;41.606;-87.602;2023-04-23T12:19:18;99627.88;;;6.29;69.51
49342;BME280;35210;41.606;-87.602;2023-04-23T12:21:50;99636.31;;;6.34;69.75
49342;BME280;35210;41.606;-87.602;2023-04-23T12:24:21;99635.63;;;6.46;68.66
49342;BME280;35210;41.606;-87.602;2023-04-23T12:26:52;99633.09;;;6.45;68.88
49342;BME280;35210;41.606;-87.602;2023-04-23T12:29:21;99635.97;;;6.40;68.66
49342;BME280;35210;41.606;-87.602;2023-04-23T12:31:52;99630.56;;;6.43;68.49
49342;BME280;35210;41.606;-87.602;2023-04-23T12:34:20;99642.75;;;6.44;68.47
49342;BME280;35210;41.606;-87.602;2023-04-23T12:36:51;99634.97;;;6.43;68.54
49342;BME280;35210;41.606;-87.602;2023-04-23T12:39:28;99633.94;;;6.45;68.51
49342;BME280;35210;41.606;-87.602;2023-04-23T12:41:58;99649.41;;;6.50;68.83
49342;BME280;35210;41.606;-87.602;2023-04-23T12:44:28;99656.28;;;6.52;69.60
49342;BME280;35210;41.606;-87.602;2023-04-23T12:46:58;99654.06;;;6.61;68.94
49342;BME280;35210;41.606;-87.602;2023-04-23T12:49:30;99650.16;;;6.68;68.63
49342;BME280;35210;41.606;-87.602;2023-04-23T12:51:59;99655.41;;;6.68;67.97
49342;BME280;35210;41.606;-87.602;2023-04-23T12:54:28;99655.94;;;6.73;67.98
49342;BME280;35210;41.606;-87.602;2023-04-23T12:56:57;99654.84;;;6.77;67.97
49342;BME280;35210;41.606;-87.602;2023-04-23T12:59:28;99655.19;;;6.71;67.11
49342;BME280;35210;41.606;-87.602;2023-04-23T13:01:58;99658.41;;;6.76;67.02